Time;durP1;ratioP1;P1;durP2;ratioP2;P2;SDS_P1;SDS_P2;PMS_P1;PMS_P2;Temp;Humidity;BMP_temperature;BMP_pressure;BME280_temperature;BME280_humidity;BME280_pressure;Samples;Min_cycle;Max_cycle;Signal;HPM_P1;HPM_P2
2022/07/07 17:27:15;;;;;;;4.30;2.50;;;;;;;18.60;57.45;94604.06;4812613;29;20472;-65
2022/07/07 17:29:41;;;;;;;4.00;2.60;;;;;;;18.86;56.92;94597.19;4808865;29;20059;-67
2022/07/07 17:32:09;;;;;;;3.88;2.60;;;;;;;18.85;57.29;94600.41;4807755;29;20050;-65
2022/07/07 17:34:36;;;;;;;3.40;2.00;;;;;;;18.95;56.86;94600.03;4819979;29;20095;-67
2022/07/07 17:37:04;;;;;;;4.35;2.20;;;;;;;19.08;56.44;94599.19;4836370;29;20414;-65
2022/07/07 17:39:31;;;;;;;4.35;2.28;;;;;;;18.80;56.54;94607.34;4829017;29;20054;-65
2022/07/07 17:41:58;;;;;;;3.30;2.07;;;;;;;18.98;56.00;94609.47;4841206;29;20046;-68
2022/07/07 17:44:29;;;;;;;3.25;2.03;;;;;;;18.89;56.36;94614.97;4829127;29;20042;-65
2022/07/07 17:46:55;;;;;;;3.75;2.00;;;;;;;18.86;56.41;94610.31;4836699;29;20054;-66
2022/07/07 17:49:22;;;;;;;3.67;2.10;;;;;;;18.70;56.89;94600.13;4831987;29;20317;-66
2022/07/07 17:51:49;;;;;;;3.10;2.10;;;;;;;18.81;56.65;94610.91;4824654;29;20068;-66
2022/07/07 17:54:16;;;;;;;3.90;2.20;;;;;;;18.63;56.92;94612.25;4825241;29;20054;-67
2022/07/07 17:56:42;;;;;;;4.05;1.90;;;;;;;18.68;56.82;94617.25;4825401;29;20057;-65
2022/07/07 17:59:09;;;;;;;3.78;2.30;;;;;;;18.26;58.22;94625.09;4824041;29;20046;-65
2022/07/07 18:01:36;;;;;;;2.72;1.80;;;;;;;18.30;58.17;94623.72;4832116;29;20045;-65
2022/07/07 18:04:03;;;;;;;3.50;2.20;;;;;;;18.37;58.22;94628.25;4836075;29;20043;-66
2022/07/07 18:06:30;;;;;;;3.33;2.33;;;;;;;18.13;58.68;94616.78;4815405;29;20058;-67
2022/07/07 18:08:57;;;;;;;4.28;2.15;;;;;;;18.39;58.02;94627.81;4840941;29;20411;-68
2022/07/07 18:11:25;;;;;;;5.15;2.10;;;;;;;18.37;58.10;94622.69;4835447;29;20064;-65
2022/07/07 18:13:52;;;;;;;2.97;1.90;;;;;;;18.39;58.33;94633.38;4834287;29;20050;-65
2022/07/07 18:16:19;;;;;;;3.92;2.20;;;;;;;18.45;57.95;94637.94;4841043;29;20050;-65
2022/07/07 18:18:46;;;;;;;5.03;2.37;;;;;;;18.26;58.55;94630.63;4840685;29;20117;-70
2022/07/07 18:21:13;;;;;;;3.47;2.10;;;;;;;18.11;59.15;94636.66;4840571;29;20049;-67
2022/07/07 18:23:41;;;;;;;3.10;2.03;;;;;;;18.19;58.76;94644.75;4825183;29;20050;-66
2022/07/07 18:26:08;;;;;;;3.42;2.17;;;;;;;17.62;60.34;94645.31;4840466;29;20052;-66
2022/07/07 18:28:34;;;;;;;5.20;2.10;;;;;;;17.60;60.54;94642.22;4824656;29;20078;-66
2022/07/07 18:31:03;;;;;;;3.10;2.20;;;;;;;17.72;59.92;94654.53;4840754;29;20053;-65
2022/07/07 18:33:29;;;;;;;5.03;1.90;;;;;;;17.66;60.11;94651.53;4838744;29;20053;-66
2022/07/07 18:35:57;;;;;;;3.05;2.08;;;;;;;17.65;60.08;94657.56;4839580;29;20045;-65
2022/07/07 18:38:24;;;;;;;4.15;2.17;;;;;;;17.46;60.53;94648.97;4834409;29;20050;-68
2022/07/07 18:40:50;;;;;;;3.72;2.40;;;;;;;17.42;60.71;94659.41;4834690;29;20419;-65
2022/07/07 18:43:22;;;;;;;3.77;2.17;;;;;;;17.56;60.23;94661.75;4840951;29;20042;-64
2022/07/07 18:45:49;;;;;;;7.57;2.00;;;;;;;17.53;60.28;94659.09;4824175;29;20054;-69
2022/07/07 18:48:16;;;;;;;2.95;1.95;;;;;;;17.46;59.95;94673.94;4840744;29;20053;-66
2022/07/07 18:50:44;;;;;;;4.82;2.20;;;;;;;17.48;59.86;94679.84;4840974;29;20572;-66
2022/07/07 18:53:14;;;;;;;4.93;1.90;;;;;;;17.15;60.17;94676.47;4839942;29;20842;-66
2022/07/07 18:55:41;;;;;;;6.00;2.20;;;;;;;17.14;60.18;94672.09;4840543;29;20062;-69
2022/07/07 18:58:08;;;;;;;4.00;1.92;;;;;;;17.16;60.07;94681.56;4840210;29;20056;-66
2022/07/07 19:00:35;;;;;;;5.70;2.10;;;;;;;17.17;60.08;94687.88;4840397;29;20052;-65
2022/07/07 19:03:02;;;;;;;3.88;2.15;;;;;;;17.32;59.76;94688.25;4840145;29;20042;-66
2022/07/07 19:05:29;;;;;;;4.05;2.20;;;;;;;17.34;59.64;94689.38;4824441;29;20117;-68
2022/07/07 19:07:56;;;;;;;3.23;2.20;;;;;;;17.22;59.70;94689.34;4823918;29;20371;-67
2022/07/07 19:10:22;;;;;;;3.75;2.17;;;;;;;16.87;60.80;94687.13;4824526;29;20053;-69
2022/07/07 19:12:50;;;;;;;7.63;2.25;;;;;;;16.88;60.62;94693.44;4823764;29;20122;-67
2022/07/07 19:15:17;;;;;;;3.10;1.90;;;;;;;16.91;60.32;94678.72;4840327;29;20050;-64
2022/07/07 19:17:43;;;;;;;5.43;2.33;;;;;;;16.87;59.89;94689.88;4840380;29;20050;-66
2022/07/07 19:20:11;;;;;;;3.60;2.23;;;;;;;16.74;60.26;94692.59;4830770;29;20152;-68
2022/07/07 19:22:38;;;;;;;3.53;2.28;;;;;;;16.57;61.00;94691.81;4820241;29;20062;-69
2022/07/07 19:25:05;;;;;;;4.00;2.10;;;;;;;16.41;61.47;94700.16;4810361;29;20051;-68
2022/07/07 19:27:36;;;;;;;4.20;2.63;;;;;;;16.45;61.28;94708.38;4823333;29;20076;-66
2022/07/07 19:30:03;;;;;;;4.93;2.58;;;;;;;16.27;62.05;94700.53;4838122;29;20048;-66
2022/07/07 19:32:30;;;;;;;3.87;2.50;;;;;;;16.24;62.38;94707.72;4839955;29;20048;-69
2022/07/07 19:34:56;;;;;;;4.10;2.53;;;;;;;16.18;62.58;94710.22;4808687;29;20123;-66
2022/07/07 19:37:24;;;;;;;4.97;2.60;;;;;;;16.03;63.20;94706.22;4840257;29;20046;-66
2022/07/07 19:39:51;;;;;;;4.07;2.58;;;;;;;15.94;63.70;94706.84;4826457;29;20068;-66
2022/07/07 19:42:18;;;;;;;5.00;2.60;;;;;;;15.95;63.73;94713.13;4840003;29;20043;-66
2022/07/07 19:44:45;;;;;;;4.27;2.47;;;;;;;15.87;64.09;94708.97;4836172;29;20042;-66
2022/07/07 19:47:12;;;;;;;3.60;2.38;;;;;;;15.72;64.66;94714.03;4828972;29;20050;-66
2022/07/07 19:49:39;;;;;;;3.88;2.45;;;;;;;15.70;65.02;94724.75;4840006;29;20045;-68
2022/07/07 19:52:06;;;;;;;4.05;2.47;;;;;;;15.75;64.85;94724.25;4839411;29;20075;-65
2022/07/07 19:54:33;;;;;;;5.78;2.50;;;;;;;15.69;64.94;94726.72;4839669;29;20054;-65
2022/07/07 19:57:00;;;;;;;4.40;2.50;;;;;;;15.51;64.93;94723.56;4839303;29;20053;-66
2022/07/07 19:59:26;;;;;;;5.10;2.50;;;;;;;15.51;65.04;94718.03;4839717;29;20464;-69
2022/07/07 20:01:57;;;;;;;5.55;2.80;;;;;;;15.45;65.40;94728.81;4839006;29;20082;-65
2022/07/07 20:04:26;;;;;;;5.63;2.75;;;;;;;15.34;65.98;94731.81;4823324;29;20048;-66
2022/07/07 20:06:54;;;;;;;6.63;2.90;;;;;;;15.40;65.74;94726.56;4839187;29;20066;-71
2022/07/07 20:09:21;;;;;;;4.33;2.50;;;;;;;15.37;66.11;94735.72;4839368;29;20456;-65
2022/07/07 20:11:48;;;;;;;3.45;2.33;;;;;;;15.37;65.78;94730.97;4823130;29;20054;-66
2022/07/07 20:14:15;;;;;;;4.55;2.50;;;;;;;15.31;66.14;94735.44;4839584;29;20090;-65
2022/07/07 20:16:46;;;;;;;4.30;2.63;;;;;;;15.19;66.33;94736.06;4839455;29;20058;-67
2022/07/07 20:19:13;;;;;;;4.57;2.65;;;;;;;15.18;66.46;94743.59;4822396;29;21758;-68
2022/07/07 20:21:40;;;;;;;4.60;2.20;;;;;;;15.20;66.25;94748.69;4839388;29;20439;-66
2022/07/07 20:24:08;;;;;;;4.30;2.50;;;;;;;15.21;66.07;94749.47;4839017;29;20519;-66
2022/07/07 20:26:34;;;;;;;4.13;2.40;;;;;;;15.06;66.69;94752.53;4839405;29;20048;-65
2022/07/07 20:29:01;;;;;;;4.30;2.30;;;;;;;14.96;66.67;94754.28;4838926;29;20050;-66
2022/07/07 20:31:29;;;;;;;5.07;2.50;;;;;;;14.95;66.88;94769.31;4823279;29;20053;-66
2022/07/07 20:33:56;;;;;;;6.97;2.37;;;;;;;14.87;66.92;94764.31;4833501;29;20262;-66
2022/07/07 20:36:23;;;;;;;6.32;2.33;;;;;;;14.85;66.77;94770.28;4837141;29;20042;-66
2022/07/07 20:38:51;;;;;;;4.35;2.60;;;;;;;14.86;66.57;94771.06;4809870;29;20051;-66
2022/07/07 20:41:20;;;;;;;4.13;2.47;;;;;;;14.86;66.67;94768.31;4818282;29;20115;-66
2022/07/07 20:43:48;;;;;;;4.05;2.30;;;;;;;14.85;66.71;94764.78;4830612;29;20054;-66
2022/07/07 20:46:16;;;;;;;4.40;2.40;;;;;;;14.81;66.75;94766.00;4843145;29;20046;-68
2022/07/07 20:48:43;;;;;;;3.75;2.60;;;;;;;14.81;66.79;94777.06;4842905;29;20062;-65
2022/07/07 20:51:10;;;;;;;3.80;2.20;;;;;;;14.72;67.24;94783.91;4842112;29;20052;-65
2022/07/07 20:53:38;;;;;;;4.20;2.40;;;;;;;14.73;67.22;94785.50;4842775;29;20046;-65
2022/07/07 20:56:06;;;;;;;3.75;2.38;;;;;;;14.71;67.24;94796.19;4834729;29;20459;-68
2022/07/07 20:58:33;;;;;;;4.10;2.60;;;;;;;14.64;67.63;94790.00;4837818;29;20073;-65
2022/07/07 21:01:00;;;;;;;3.70;2.42;;;;;;;14.66;67.80;94793.91;4842070;29;20068;-68
2022/07/07 21:03:27;;;;;;;3.42;2.42;;;;;;;14.66;67.65;94782.06;4842606;29;20060;-65
2022/07/07 21:05:54;;;;;;;4.75;2.78;;;;;;;14.62;68.13;94784.13;4842019;29;20048;-68
2022/07/07 21:08:21;;;;;;;4.32;2.60;;;;;;;14.57;68.01;94793.66;4842595;29;20112;-64
2022/07/07 21:10:48;;;;;;;5.53;2.50;;;;;;;14.55;68.13;94799.56;4842060;29;20056;-64
2022/07/07 21:13:18;;;;;;;3.40;2.28;;;;;;;14.58;68.17;94795.22;4826012;29;20049;-65
2022/07/07 21:15:48;;;;;;;3.45;2.45;;;;;;;14.53;68.37;94801.22;4842659;29;20101;-64
2022/07/07 21:18:16;;;;;;;4.40;2.30;;;;;;;14.47;68.65;94809.19;4825394;29;20073;-64
2022/07/07 21:20:44;;;;;;;4.68;2.53;;;;;;;14.51;68.50;94809.13;4842494;29;20054;-65
2022/07/07 21:23:12;;;;;;;3.57;2.50;;;;;;;14.35;69.39;94804.25;4841661;29;20400;-65
2022/07/07 21:25:39;;;;;;;3.95;2.67;;;;;;;14.34;69.30;94808.19;4841967;29;20068;-65
2022/07/07 21:28:06;;;;;;;5.40;2.65;;;;;;;14.39;69.44;94808.50;4841838;29;20407;-65
2022/07/07 21:30:34;;;;;;;7.82;2.78;;;;;;;14.39;69.33;94813.25;4841951;29;20046;-66
2022/07/07 21:33:01;;;;;;;4.93;2.53;;;;;;;14.26;69.82;94820.56;4841589;29;20042;-65
2022/07/07 21:35:27;;;;;;;5.43;2.60;;;;;;;14.25;69.99;94819.00;4837015;29;20557;-65
2022/07/07 21:37:55;;;;;;;3.80;2.50;;;;;;;14.28;70.24;94823.66;4838796;29;20476;-66
2022/07/07 21:40:22;;;;;;;5.22;2.63;;;;;;;14.25;70.32;94821.75;4816173;29;20407;-68
2022/07/07 21:42:49;;;;;;;6.65;2.67;;;;;;;14.24;70.23;94820.97;4841452;29;20049;-65
2022/07/07 21:45:16;;;;;;;4.53;2.45;;;;;;;14.28;70.28;94829.19;4841737;29;20054;-66
2022/07/07 21:47:43;;;;;;;5.37;2.70;;;;;;;14.17;70.71;94829.38;4815987;29;20055;-67
2022/07/07 21:50:09;;;;;;;4.78;2.60;;;;;;;14.21;70.57;94830.09;4838538;29;20046;-65
2022/07/07 21:52:36;;;;;;;3.92;2.60;;;;;;;14.19;70.57;94832.50;4835481;29;20073;-66
2022/07/07 21:55:03;;;;;;;4.68;2.60;;;;;;;14.23;70.45;94838.75;4833695;29;20070;-64
2022/07/07 21:57:30;;;;;;;4.93;2.70;;;;;;;14.26;70.27;94839.88;4841611;29;20494;-64
2022/07/07 21:59:57;;;;;;;5.10;2.70;;;;;;;14.27;70.42;94836.72;4832434;29;20412;-65
2022/07/07 22:02:24;;;;;;;5.22;2.70;;;;;;;14.20;70.91;94836.78;4837578;29;20385;-64
2022/07/07 22:07:36;;;;;;;5.47;2.60;;;;;;;14.09;71.36;94841.72;4841248;29;20058;-65
2022/07/07 22:10:03;;;;;;;5.45;2.90;;;;;;;14.13;71.33;94854.25;4840981;29;20045;-64
2022/07/07 22:12:31;;;;;;;5.67;2.80;;;;;;;14.14;71.29;94855.03;4841472;29;20046;-64
2022/07/07 22:14:58;;;;;;;4.03;2.50;;;;;;;14.11;71.14;94858.63;4840931;29;20038;-64
2022/07/07 22:17:26;;;;;;;4.40;2.75;;;;;;;14.10;71.13;94860.59;4841353;29;20412;-65
2022/07/07 22:19:53;;;;;;;6.43;2.40;;;;;;;14.05;71.70;94858.31;4840633;29;20072;-64
2022/07/07 22:22:20;;;;;;;6.05;2.42;;;;;;;13.99;71.62;94860.75;4841413;29;20038;-66
2022/07/07 22:24:48;;;;;;;5.97;2.50;;;;;;;13.97;71.69;94854.84;4840718;29;20056;-65
2022/07/07 22:27:16;;;;;;;4.82;2.70;;;;;;;13.94;71.93;94854.91;4820694;29;20046;-64
2022/07/07 22:29:42;;;;;;;4.38;2.70;;;;;;;13.88;72.46;94856.56;4810935;29;20062;-67
2022/07/07 22:32:09;;;;;;;4.30;2.78;;;;;;;13.95;72.31;94857.25;4822552;29;20056;-64
2022/07/07 22:34:37;;;;;;;3.90;2.40;;;;;;;13.94;72.43;94857.66;4814880;29;20046;-65
2022/07/07 22:37:04;;;;;;;4.30;2.60;;;;;;;13.79;73.06;94860.59;4822263;29;20453;-65
2022/07/07 22:39:32;;;;;;;4.03;2.40;;;;;;;13.79;73.29;94868.88;4809733;29;20050;-65
2022/07/07 22:42:00;;;;;;;4.05;2.50;;;;;;;13.79;73.39;94860.59;4822408;29;20054;-66
2022/07/07 22:44:27;;;;;;;3.55;2.40;;;;;;;13.73;73.76;94865.00;4822845;29;20054;-65
2022/07/07 22:46:54;;;;;;;4.75;2.85;;;;;;;13.65;74.18;94865.53;4822365;29;20057;-65
2022/07/07 22:49:20;;;;;;;5.07;2.63;;;;;;;13.65;73.95;94871.03;4822971;29;20054;-65
2022/07/07 22:51:47;;;;;;;5.15;3.15;;;;;;;13.56;74.49;94875.06;4822147;29;20058;-65
2022/07/07 22:54:14;;;;;;;5.00;2.65;;;;;;;13.48;74.65;94872.78;4822465;29;20047;-66
2022/07/07 22:56:41;;;;;;;4.07;2.80;;;;;;;13.49;74.89;94872.38;4822472;29;20052;-66
2022/07/07 22:59:08;;;;;;;4.10;2.72;;;;;;;13.47;75.40;94871.25;4821935;29;20052;-67
2022/07/07 23:01:34;;;;;;;3.97;2.50;;;;;;;13.45;75.47;94863.38;4822519;29;20456;-65
2022/07/07 23:04:01;;;;;;;4.78;2.80;;;;;;;13.43;75.33;94876.78;4822129;29;20057;-64
2022/07/07 23:06:28;;;;;;;5.32;2.50;;;;;;;13.48;75.56;94870.84;4822184;29;20380;-64
2022/07/07 23:08:55;;;;;;;4.50;2.85;;;;;;;13.52;75.32;94871.56;4821943;29;20050;-64
2022/07/07 23:11:21;;;;;;;4.20;2.90;;;;;;;13.53;75.24;94878.63;4806125;29;20054;-64
2022/07/07 23:13:48;;;;;;;5.03;2.60;;;;;;;13.56;75.51;94877.84;4821889;29;20077;-68
2022/07/07 23:16:16;;;;;;;4.80;2.53;;;;;;;13.64;75.35;94880.50;4822325;29;20049;-66
2022/07/07 23:18:43;;;;;;;4.85;2.97;;;;;;;13.70;75.14;94878.84;4806103;29;20102;-65
2022/07/07 23:21:11;;;;;;;4.22;2.92;;;;;;;13.70;75.46;94884.38;4805284;29;20508;-66
2022/07/07 23:23:38;;;;;;;4.40;2.80;;;;;;;13.71;75.10;94888.69;4821943;29;20060;-66
2022/07/07 23:26:05;;;;;;;3.97;2.70;;;;;;;13.72;75.26;94891.06;4814539;29;20062;-63
2022/07/07 23:28:32;;;;;;;4.65;2.60;;;;;;;13.71;75.34;94889.47;4840277;29;20555;-67
2022/07/07 23:30:59;;;;;;;4.95;2.65;;;;;;;13.67;75.06;94888.72;4823643;29;20053;-64
2022/07/07 23:33:26;;;;;;;3.88;2.58;;;;;;;13.65;75.15;94893.88;4838538;29;20419;-66
2022/07/07 23:35:53;;;;;;;4.25;2.80;;;;;;;13.58;75.45;94880.97;4830773;29;20056;-64
2022/07/07 23:38:19;;;;;;;4.00;2.77;;;;;;;13.50;75.75;94886.94;4834082;29;20053;-64
2022/07/07 23:40:46;;;;;;;5.28;2.90;;;;;;;13.48;75.63;94884.63;4831030;29;20077;-66
2022/07/07 23:43:13;;;;;;;6.20;3.00;;;;;;;13.45;75.92;94881.91;4824005;29;20514;-64
2022/07/07 23:45:40;;;;;;;3.97;2.55;;;;;;;13.38;75.65;94879.97;4840101;29;20046;-64
2022/07/07 23:48:06;;;;;;;4.40;2.50;;;;;;;13.32;75.95;94885.19;4839327;29;20052;-64
2022/07/07 23:50:33;;;;;;;4.23;2.70;;;;;;;13.29;76.04;94890.69;4839925;29;20062;-64
2022/07/07 23:53:00;;;;;;;4.60;2.67;;;;;;;13.30;76.52;94887.56;4839451;29;20049;-65
2022/07/07 23:55:26;;;;;;;6.93;2.80;;;;;;;13.36;76.13;94887.88;4827095;29;20068;-65
2022/07/07 23:57:53;;;;;;;4.30;2.90;;;;;;;13.35;76.11;94889.09;4823152;29;20050;-67
